Time;durP1;ratioP1;P1;durP2;ratioP2;P2;SDS_P1;SDS_P2;PMS_P1;PMS_P2;Temp;Humidity;BMP_temperature;BMP_pressure;BME280_temperature;BME280_humidity;BME280_pressure;Samples;Min_cycle;Max_cycle;Signal;HPM_P1;HPM_P2
2023/05/27 00:02:47;;;;;;;17.20;5.78;;;;;;;9.77;63.38;101748.84;10051581;29;20049;-79
2023/05/27 00:07:51;;;;;;;18.75;5.97;;;;;;;9.61;64.20;101747.97;10059165;29;20087;-80
2023/05/27 00:12:54;;;;;;;18.90;5.10;;;;;;;9.61;64.02;101743.44;10053368;29;20053;-79
2023/05/27 00:17:59;;;;;;;12.07;5.25;;;;;;;9.56;64.12;101747.34;10052369;29;20059;-80
2023/05/27 00:23:04;;;;;;;17.65;5.95;;;;;;;9.37;64.87;101744.81;10050072;29;20420;-80
2023/05/27 00:28:07;;;;;;;23.00;6.80;;;;;;;9.35;65.23;101749.38;10050497;29;20046;-80
2023/05/27 00:33:10;;;;;;;20.75;6.50;;;;;;;9.32;64.91;101745.03;10049787;29;20505;-80
2023/05/27 00:38:14;;;;;;;14.70;5.70;;;;;;;9.24;65.11;101747.25;10055117;29;20044;-80
2023/05/27 00:43:17;;;;;;;18.95;6.07;;;;;;;9.23;65.28;101745.53;10049578;29;20050;-81
2023/05/27 00:48:21;;;;;;;23.15;6.32;;;;;;;9.24;65.40;101747.25;10047189;29;20068;-80
2023/05/27 00:53:25;;;;;;;15.18;5.82;;;;;;;9.20;65.65;101745.72;10048460;29;20038;-80
2023/05/27 00:58:29;;;;;;;17.95;5.07;;;;;;;9.25;65.34;101740.97;10054712;29;20073;-79
2023/05/27 01:03:33;;;;;;;14.05;6.00;;;;;;;9.20;65.25;101735.84;10043885;29;20152;-80
2023/05/27 01:08:59;;;;;;;16.35;5.00;;;;;;;8.98;65.49;101732.59;10057097;29;20102;-78
2023/05/27 01:14:09;;;;;;;19.30;5.53;;;;;;;9.05;65.70;101739.34;10036946;29;20088;-79
2023/05/27 01:19:16;;;;;;;14.13;4.90;;;;;;;9.01;65.54;101727.94;10050159;29;20125;-78
2023/05/27 01:24:21;;;;;;;18.67;6.38;;;;;;;9.01;65.69;101730.59;10050365;29;20037;-79
2023/05/27 01:29:24;;;;;;;22.30;7.72;;;;;;;8.96;65.98;101729.13;10049703;29;20041;-79
2023/05/27 01:34:34;;;;;;;23.70;6.68;;;;;;;8.49;67.44;101727.09;10066862;29;20046;-79
2023/05/27 01:39:42;;;;;;;23.20;6.20;;;;;;;8.36;67.81;101727.72;10048288;29;20053;-79
2023/05/27 01:44:47;;;;;;;20.42;6.47;;;;;;;8.31;68.44;101720.81;10051304;29;20073;-78
2023/05/27 01:49:49;;;;;;;21.40;6.82;;;;;;;8.26;68.07;101728.25;10046681;29;20045;-79
2023/05/27 01:54:54;;;;;;;14.93;5.72;;;;;;;8.35;68.37;101723.28;10041029;29;20142;-79
2023/05/27 01:59:58;;;;;;;18.20;5.68;;;;;;;8.47;67.94;101716.44;10050991;29;20144;-79
2023/05/27 02:05:02;;;;;;;16.42;6.07;;;;;;;8.48;67.88;101712.84;10061173;29;20050;-80
2023/05/27 02:10:08;;;;;;;20.35;6.13;;;;;;;8.35;68.16;101715.25;10040800;29;20046;-80
2023/05/27 02:15:11;;;;;;;19.10;6.30;;;;;;;8.23;68.99;101701.59;10052267;29;20085;-79
2023/05/27 02:20:14;;;;;;;23.80;6.20;;;;;;;8.18;69.12;101710.75;10048578;29;20060;-79
2023/05/27 02:25:19;;;;;;;19.75;6.32;;;;;;;8.20;69.50;101704.44;10046989;29;20076;-80
2023/05/27 02:30:22;;;;;;;17.15;5.97;;;;;;;8.27;69.20;101701.38;10046681;29;20049;-80
2023/05/27 02:35:25;;;;;;;21.30;6.30;;;;;;;7.85;69.95;101709.75;10048565;29;20057;-79
2023/05/27 02:40:29;;;;;;;19.63;6.20;;;;;;;7.50;71.39;101715.81;10057571;29;20046;-79
2023/05/27 02:45:32;;;;;;;28.98;7.95;;;;;;;7.72;71.23;101706.78;10043821;29;20042;-79
2023/05/27 02:50:35;;;;;;;23.85;7.45;;;;;;;7.63;70.97;101704.56;10077242;29;20053;-79
2023/05/27 02:55:40;;;;;;;19.88;6.40;;;;;;;7.66;70.91;101707.94;10076042;29;20117;-79
2023/05/27 03:00:43;;;;;;;21.73;6.50;;;;;;;7.77;70.22;101702.06;10074373;29;20064;-79
2023/05/27 03:05:46;;;;;;;19.10;5.60;;;;;;;7.85;69.72;101705.25;10077251;29;20077;-79
2023/05/27 03:10:51;;;;;;;14.80;5.22;;;;;;;7.86;68.99;101706.09;10076508;29;20137;-78
2023/05/27 03:15:55;;;;;;;14.10;4.80;;;;;;;7.89;68.80;101709.50;10081473;29;20041;-78
2023/05/27 03:20:58;;;;;;;18.40;5.55;;;;;;;7.70;68.93;101714.84;10082328;29;20085;-79
2023/05/27 03:26:04;;;;;;;14.88;6.03;;;;;;;7.63;69.78;101705.41;10078154;29;20116;-79
2023/05/27 03:31:08;;;;;;;15.63;5.72;;;;;;;7.67;70.05;101715.00;10076080;29;20049;-79
2023/05/27 03:36:20;;;;;;;16.70;5.45;;;;;;;7.76;69.64;101703.00;10087636;29;20029;-78
2023/05/27 03:41:25;;;;;;;18.33;7.03;;;;;;;7.84;69.57;101698.13;10094011;29;20079;-79
2023/05/27 03:46:29;;;;;;;22.88;6.38;;;;;;;7.94;69.44;101685.19;10074715;29;20042;-79
2023/05/27 03:51:34;;;;;;;15.27;5.55;;;;;;;7.93;69.30;101681.66;10032538;29;20045;-78
2023/05/27 03:56:38;;;;;;;23.20;6.82;;;;;;;7.91;69.33;101685.34;10053386;29;20057;-79
2023/05/27 04:01:41;;;;;;;20.20;6.05;;;;;;;7.84;69.49;101683.91;10038846;29;20072;-78
2023/05/27 04:06:44;;;;;;;20.00;6.07;;;;;;;7.86;69.60;101690.91;10044271;29;20414;-79
2023/05/27 04:11:49;;;;;;;26.98;7.15;;;;;;;8.03;69.96;101684.72;10031313;29;20144;-79
2023/05/27 04:16:52;;;;;;;17.27;6.40;;;;;;;8.13;69.79;101691.38;10037699;29;20056;-79
2023/05/27 04:21:55;;;;;;;15.40;5.18;;;;;;;8.16;69.38;101688.53;10035759;29;20152;-79
2023/05/27 04:27:02;;;;;;;16.80;5.50;;;;;;;8.24;69.62;101679.25;10051275;29;20050;-79
2023/05/27 04:32:06;;;;;;;19.67;6.05;;;;;;;8.31;69.75;101681.56;10040185;29;20053;-79
2023/05/27 04:37:10;;;;;;;24.30;7.78;;;;;;;8.37;69.50;101675.00;10040584;29;20178;-80
2023/05/27 04:42:15;;;;;;;17.90;7.25;;;;;;;8.39;69.62;101675.78;10046975;29;20049;-80
2023/05/27 04:47:22;;;;;;;19.63;6.75;;;;;;;8.52;69.71;101678.72;10052734;29;20038;-78
2023/05/27 04:52:25;;;;;;;17.08;7.10;;;;;;;8.62;69.75;101674.63;10051197;29;20058;-78
2023/05/27 04:57:29;;;;;;;17.55;6.47;;;;;;;8.67;69.39;101677.94;10055842;29;20046;-79
2023/05/27 05:02:35;;;;;;;19.60;6.82;;;;;;;8.80;69.83;101675.47;10046677;29;20070;-77
2023/05/27 05:07:45;;;;;;;20.90;6.65;;;;;;;8.97;69.51;101680.81;10062534;29;20081;-80
2023/05/27 05:12:51;;;;;;;17.27;5.50;;;;;;;8.58;70.16;101681.09;10063374;29;20061;-82
2023/05/27 05:17:54;;;;;;;19.60;6.50;;;;;;;8.90;70.63;101679.38;10062589;29;20132;-80
2023/05/27 05:23:02;;;;;;;17.95;6.40;;;;;;;9.22;70.09;101677.66;10061205;29;20057;-81
2023/05/27 05:28:07;;;;;;;22.95;7.10;;;;;;;9.47;69.67;101676.28;10065507;29;20057;-81
2023/05/27 05:33:12;;;;;;;22.35;7.95;;;;;;;9.70;69.52;101685.72;10073696;29;20050;-82
2023/05/27 05:38:15;;;;;;;26.88;6.72;;;;;;;9.77;68.94;101679.06;10072556;29;20056;-79
2023/05/27 05:43:21;;;;;;;19.75;7.25;;;;;;;9.91;68.88;101678.31;10069268;29;20061;-79
2023/05/27 05:48:25;;;;;;;27.25;9.38;;;;;;;10.10;68.62;101667.34;10065645;29;20478;-78
2023/05/27 05:53:28;;;;;;;21.73;7.68;;;;;;;10.16;67.93;101678.59;10057982;29;20049;-79
2023/05/27 05:58:33;;;;;;;24.42;7.47;;;;;;;10.34;68.00;101687.41;10051612;29;20045;-79
2023/05/27 06:03:37;;;;;;;22.27;7.82;;;;;;;10.47;67.92;101675.91;10054358;29;20075;-78
2023/05/27 06:08:42;;;;;;;19.20;6.93;;;;;;;10.52;67.34;101690.78;10047878;29;20133;-79
2023/05/27 06:13:51;;;;;;;18.67;6.97;;;;;;;10.85;67.44;101703.13;10055579;29;20056;-79
2023/05/27 06:18:55;;;;;;;19.98;7.28;;;;;;;10.92;65.84;101691.06;10042261;29;20053;-78
2023/05/27 06:23:58;;;;;;;26.58;6.50;;;;;;;11.26;66.50;101684.44;10035466;29;20091;-78
2023/05/27 06:29:09;;;;;;;24.40;6.45;;;;;;;11.61;65.23;101691.22;10054461;29;20106;-79
2023/05/27 06:34:12;;;;;;;27.88;7.05;;;;;;;11.69;64.36;101695.16;10048759;29;20056;-79
2023/05/27 06:39:15;;;;;;;21.10;6.50;;;;;;;11.83;63.24;101690.69;10046169;29;20159;-78
2023/05/27 06:44:19;;;;;;;17.27;6.65;;;;;;;12.13;63.30;101680.56;10041810;29;20144;-78
2023/05/27 06:49:34;;;;;;;17.17;5.75;;;;;;;12.59;62.39;101660.44;10037190;29;20049;-78
2023/05/27 06:54:39;;;;;;;17.48;6.43;;;;;;;12.81;59.81;101676.00;10049458;29;20049;-80
2023/05/27 07:00:05;;;;;;;;;;;;;;;13.11;59.62;101669.38;10046265;29;20117;-79
2023/05/27 07:05:16;;;;;;;19.77;5.35;;;;;;;13.73;59.93;101655.00;10043727;29;19928;-79
2023/05/27 07:10:20;;;;;;;21.52;6.38;;;;;;;13.78;57.52;101650.97;10052651;29;20598;-79
2023/05/27 07:15:26;;;;;;;17.40;5.63;;;;;;;13.84;57.78;101652.34;10047818;29;20049;-79
2023/05/27 07:20:30;;;;;;;17.98;6.68;;;;;;;14.05;57.34;101645.34;10056507;29;20084;-79
2023/05/27 07:25:38;;;;;;;19.77;6.18;;;;;;;14.74;55.97;101642.72;10055890;29;20137;-79
2023/05/27 07:30:44;;;;;;;20.33;6.00;;;;;;;16.22;53.43;101633.38;10058258;29;20051;-79
2023/05/27 07:35:47;;;;;;;19.38;5.88;;;;;;;17.66;48.64;101626.09;10059549;29;20061;-79
2023/05/27 07:40:50;;;;;;;22.70;5.45;;;;;;;18.00;47.20;101617.59;10050080;29;20072;-79
2023/05/27 07:45:55;;;;;;;17.83;5.90;;;;;;;18.25;46.45;101627.88;10060668;29;20294;-78
2023/05/27 07:50:58;;;;;;;19.73;6.55;;;;;;;18.43;44.93;101611.69;10047510;29;20136;-79
2023/05/27 07:56:01;;;;;;;16.10;5.18;;;;;;;18.18;45.62;101615.84;10054440;29;20573;-79
2023/05/27 08:01:05;;;;;;;19.73;6.07;;;;;;;17.95;48.16;101600.81;10043639;29;20066;-80
2023/05/27 08:06:09;;;;;;;19.52;6.63;;;;;;;18.27;45.06;101595.09;10053493;29;20226;-79
2023/05/27 08:11:32;;;;;;;17.48;5.50;;;;;;;18.19;46.14;101595.81;10041865;29;20648;-78
2023/05/27 08:16:43;;;;;;;14.13;4.95;;;;;;;;;;10048872;29;20141;-78
2023/05/27 08:21:57;;;;;;;14.02;4.20;;;;;;;17.81;44.65;101577.63;10044715;29;20049;-79
2023/05/27 08:27:43;;;;;;;14.68;4.38;;;;;;;18.21;44.74;101569.34;10046298;29;20057;-79
2023/05/27 08:32:52;;;;;;;;;;;;;;;18.29;42.15;101560.44;10063100;29;20062;-78
2023/05/27 08:37:56;;;;;;;16.02;5.03;;;;;;;17.95;43.72;101546.44;10044364;29;19984;-78
2023/05/27 08:43:03;;;;;;;12.52;4.75;;;;;;;17.82;44.31;101549.44;10053235;29;20057;-79
2023/05/27 08:48:09;;;;;;;14.02;4.70;;;;;;;18.71;44.42;101552.72;10043069;29;20058;-79
2023/05/27 08:53:16;;;;;;;14.85;5.28;;;;;;;18.79;43.24;101544.69;10036402;29;20426;-78
2023/05/27 08:58:19;;;;;;;16.27;5.05;;;;;;;18.82;43.40;101538.09;10045000;29;20137;-78
2023/05/27 09:03:27;;;;;;;11.93;5.80;;;;;;;18.70;43.67;101528.34;10050915;29;20057;-79
2023/05/27 09:08:32;;;;;;;14.25;5.18;;;;;;;19.12;43.49;101526.03;10058633;29;20061;-79
2023/05/27 09:13:55;;;;;;;15.38;5.25;;;;;;;19.49;42.05;101511.41;10048404;29;20056;-79
2023/05/27 09:19:00;;;;;;;12.35;5.13;;;;;;;19.35;44.76;101504.66;10051590;29;20524;-78
2023/05/27 09:24:03;;;;;;;19.33;6.38;;;;;;;20.06;43.31;101501.03;10060138;29;20057;-78
2023/05/27 09:29:07;;;;;;;16.05;5.40;;;;;;;20.62;41.73;101508.88;10047691;29;20395;-78
2023/05/27 09:34:13;;;;;;;12.02;4.85;;;;;;;20.92;39.64;101508.31;10054303;29;20671;-80
2023/05/27 09:39:17;;;;;;;15.00;4.95;;;;;;;20.34;41.70;101499.00;10052427;29;20045;-79
2023/05/27 09:44:21;;;;;;;18.33;5.28;;;;;;;20.78;40.85;101507.06;10046907;29;20526;-79
2023/05/27 09:49:27;;;;;;;11.13;4.38;;;;;;;21.07;39.88;101488.63;10049624;29;20050;-78
2023/05/27 09:54:31;;;;;;;11.90;3.97;;;;;;;20.82;39.37;101495.84;10044202;29;20565;-78
2023/05/27 09:59:34;;;;;;;11.30;4.50;;;;;;;20.96;38.73;101492.47;10037365;29;20594;-78
2023/05/27 10:04:38;;;;;;;11.68;3.97;;;;;;;21.49;36.78;101476.72;10037137;29;20046;-79
2023/05/27 10:09:41;;;;;;;10.98;4.03;;;;;;;22.08;36.82;101458.25;10048338;29;20173;-77
2023/05/27 10:14:46;;;;;;;8.90;3.25;;;;;;;21.91;34.65;101467.50;10041972;29;20038;-79
2023/05/27 10:19:57;;;;;;;7.90;3.22;;;;;;;22.11;34.34;101460.63;10056942;29;20053;-79
2023/05/27 10:25:11;;;;;;;9.73;3.50;;;;;;;22.42;34.02;101454.38;10050540;29;20143;-78
2023/05/27 10:30:15;;;;;;;7.07;3.28;;;;;;;22.72;32.93;101450.00;10041629;29;20125;-79
2023/05/27 10:35:20;;;;;;;11.73;3.25;;;;;;;22.27;32.29;101446.91;10044303;29;20132;-79
2023/05/27 10:40:26;;;;;;;8.63;2.88;;;;;;;22.10;33.25;101437.91;10054558;29;20051;-79
2023/05/27 10:45:33;;;;;;;10.52;3.33;;;;;;;22.73;35.51;101438.00;10045426;29;20110;-79
2023/05/27 10:50:38;;;;;;;13.38;3.60;;;;;;;23.69;35.75;101422.94;10035417;29;20053;-79
2023/05/27 10:55:41;;;;;;;5.00;2.85;;;;;;;22.62;33.52;101414.63;10048046;29;20045;-78
2023/05/27 11:00:46;;;;;;;8.50;3.47;;;;;;;23.15;33.87;101415.72;10044323;29;20413;-78
2023/05/27 11:06:00;;;;;;;7.93;3.60;;;;;;;22.64;35.81;101418.03;10043479;29;20136;-79
2023/05/27 11:11:06;;;;;;;10.52;3.75;;;;;;;23.40;35.42;101402.66;10048119;29;20098;-79
2023/05/27 11:16:09;;;;;;;9.30;3.38;;;;;;;23.86;34.93;101398.97;10041929;29;20046;-79
2023/05/27 11:21:16;;;;;;;6.90;3.53;;;;;;;24.57;33.48;101390.25;10048404;29;20097;-79
2023/05/27 11:26:22;;;;;;;7.32;3.25;;;;;;;24.23;30.15;101388.97;10036601;29;20045;-78
2023/05/27 11:31:28;;;;;;;7.88;3.30;;;;;;;23.60;31.71;101386.53;10036287;29;20041;-79
2023/05/27 11:36:33;;;;;;;9.65;3.30;;;;;;;24.36;33.46;101385.56;10031420;29;20562;-78
2023/05/27 11:41:36;;;;;;;6.65;3.22;;;;;;;25.53;32.78;101366.91;10053818;29;20064;-77
2023/05/27 11:46:41;;;;;;;9.30;3.20;;;;;;;24.98;31.48;101368.53;10050292;29;20077;-79
2023/05/27 11:51:47;;;;;;;8.30;2.90;;;;;;;25.79;31.70;101362.72;10050179;29;20112;-79
2023/05/27 11:56:51;;;;;;;10.25;3.60;;;;;;;25.46;30.84;101346.78;10059945;29;20042;-79
2023/05/27 12:01:54;;;;;;;10.63;3.38;;;;;;;25.01;31.00;101342.53;10056358;29;20153;-79
2023/05/27 12:07:00;;;;;;;8.75;3.63;;;;;;;24.63;32.74;101334.53;10045038;29;20064;-79
2023/05/27 12:12:10;;;;;;;11.90;3.65;;;;;;;24.74;31.82;101325.81;10050077;29;20034;-79
2023/05/27 12:17:13;;;;;;;12.38;3.63;;;;;;;25.67;31.53;101318.41;10055712;29;20043;-78
2023/05/27 12:22:17;;;;;;;7.13;3.53;;;;;;;25.78;29.86;101312.34;10044293;29;20052;-78
2023/05/27 12:27:21;;;;;;;8.57;3.35;;;;;;;25.94;30.23;101302.03;10052205;29;20042;-78
2023/05/27 12:32:24;;;;;;;9.40;3.03;;;;;;;26.43;29.72;101296.31;10040798;29;20042;-78
2023/05/27 12:37:28;;;;;;;8.88;3.78;;;;;;;27.00;29.23;101280.31;10067549;29;20045;-80
2023/05/27 12:42:32;;;;;;;7.15;2.75;;;;;;;26.34;28.63;101293.97;10054771;29;20046;-78
2023/05/27 12:47:35;;;;;;;7.20;2.83;;;;;;;26.64;28.96;101267.75;10050306;29;20041;-79
2023/05/27 12:52:45;;;;;;;11.10;2.92;;;;;;;26.41;28.60;101270.03;10050062;29;20045;-78
2023/05/27 12:57:49;;;;;;;9.38;3.08;;;;;;;26.18;29.18;101273.97;10040618;29;20450;-79
2023/05/27 13:02:52;;;;;;;7.78;4.32;;;;;;;25.63;29.44;101264.78;10046504;29;20391;-78
2023/05/27 13:07:58;;;;;;;8.73;3.05;;;;;;;25.37;29.27;101260.84;10056982;29;20130;-79
2023/05/27 13:13:02;;;;;;;6.15;2.78;;;;;;;24.33;31.50;101252.25;10052549;29;20551;-79
2023/05/27 13:18:06;;;;;;;5.65;3.28;;;;;;;24.82;31.02;101243.25;10056046;29;20048;-79
2023/05/27 13:23:11;;;;;;;7.88;3.13;;;;;;;25.09;30.10;101232.50;10060991;29;20042;-79
2023/05/27 13:28:14;;;;;;;6.43;2.92;;;;;;;25.63;29.71;101224.41;10054220;29;20034;-79
2023/05/27 13:33:17;;;;;;;10.43;3.42;;;;;;;25.73;28.98;101210.28;10061120;29;20065;-78
2023/05/27 13:38:21;;;;;;;6.85;3.00;;;;;;;25.83;27.96;101212.63;10069722;29;20065;-79
2023/05/27 13:43:24;;;;;;;6.40;3.10;;;;;;;26.19;29.63;101205.97;10063464;29;20068;-79
2023/05/27 13:48:27;;;;;;;9.20;3.28;;;;;;;26.39;28.26;101203.31;10061714;29;20116;-79
2023/05/27 13:53:31;;;;;;;9.00;3.78;;;;;;;26.86;28.81;101190.44;10051612;29;20128;-79
2023/05/27 13:58:34;;;;;;;11.73;3.63;;;;;;;26.76;28.20;101184.47;10048156;29;20041;-79
2023/05/27 14:03:39;;;;;;;10.77;3.70;;;;;;;26.48;28.68;101180.84;10050809;29;20076;-78
2023/05/27 14:08:44;;;;;;;8.85;3.80;;;;;;;26.52;28.94;101179.38;10048877;29;20038;-78
2023/05/27 14:13:48;;;;;;;7.57;3.28;;;;;;;26.00;28.29;101166.31;10047306;29;20056;-79
2023/05/27 14:18:51;;;;;;;7.00;3.28;;;;;;;26.90;28.89;101164.97;10053684;29;20045;-79
2023/05/27 14:23:55;;;;;;;9.60;3.33;;;;;;;27.20;27.97;101150.69;10062699;29;20062;-78
2023/05/27 14:28:59;;;;;;;8.60;4.20;;;;;;;27.37;29.82;101140.03;10049977;29;20073;-78
2023/05/27 14:34:02;;;;;;;7.60;3.58;;;;;;;26.79;29.42;101143.53;10052274;29;20501;-78
2023/05/27 14:39:07;;;;;;;8.95;3.97;;;;;;;27.13;28.84;101136.94;10050820;29;20078;-78
2023/05/27 14:44:10;;;;;;;5.47;3.13;;;;;;;27.33;29.54;101120.31;10049093;29;20113;-79
2023/05/27 14:49:13;;;;;;;10.18;3.90;;;;;;;27.06;28.88;101115.97;10053177;29;20046;-79
2023/05/27 14:54:17;;;;;;;7.03;3.70;;;;;;;27.29;29.86;101118.22;10069443;29;20064;-80
2023/05/27 14:59:21;;;;;;;12.38;3.85;;;;;;;26.90;29.35;101114.50;10091205;29;20033;-79
2023/05/27 15:04:25;;;;;;;7.63;4.05;;;;;;;27.03;29.70;101113.63;10088206;29;20197;-78
2023/05/27 15:09:29;;;;;;;13.65;4.38;;;;;;;26.95;30.20;101111.97;10071552;29;20065;-80
2023/05/27 15:14:32;;;;;;;8.00;3.63;;;;;;;26.59;29.04;101106.91;10076012;29;20053;-79
2023/05/27 15:19:35;;;;;;;8.60;3.78;;;;;;;26.02;29.69;101100.91;10074707;29;20097;-78
2023/05/27 15:24:39;;;;;;;7.95;3.63;;;;;;;26.52;30.16;101101.38;10073245;29;20472;-80
2023/05/27 15:29:42;;;;;;;8.90;4.55;;;;;;;26.61;30.83;101102.03;10065534;29;20489;-80
2023/05/27 15:34:45;;;;;;;9.05;3.95;;;;;;;27.05;29.78;101097.75;10081547;29;20041;-80
2023/05/27 15:39:49;;;;;;;8.30;4.03;;;;;;;26.52;29.75;101102.25;10077857;29;20105;-79
2023/05/27 15:44:52;;;;;;;7.85;4.03;;;;;;;26.38;30.61;101096.94;10070414;29;20231;-80
2023/05/27 15:49:55;;;;;;;7.93;3.50;;;;;;;26.55;30.76;101092.72;10068574;29;20049;-79
2023/05/27 15:54:59;;;;;;;11.25;4.20;;;;;;;26.51;30.61;101086.75;10065988;29;20141;-79
2023/05/27 16:00:03;;;;;;;13.02;4.10;;;;;;;26.88;30.12;101072.56;10046257;29;20524;-79
2023/05/27 16:05:14;;;;;;;10.98;4.13;;;;;;;26.42;30.68;101076.19;10053030;29;20109;-79
2023/05/27 16:10:19;;;;;;;9.20;3.40;;;;;;;25.92;31.25;101075.69;10042276;29;20050;-78
2023/05/27 16:15:22;;;;;;;8.60;3.72;;;;;;;26.51;30.71;101066.63;10045201;29;20482;-79
2023/05/27 16:20:25;;;;;;;7.68;3.65;;;;;;;26.41;30.29;101061.59;10047022;29;20042;-79
2023/05/27 16:25:29;;;;;;;8.68;3.63;;;;;;;26.59;30.56;101052.66;10062677;29;20045;-80
2023/05/27 16:30:32;;;;;;;8.43;4.00;;;;;;;26.44;29.89;101049.25;10039427;29;20045;-79
2023/05/27 16:35:35;;;;;;;8.45;3.33;;;;;;;26.99;30.27;101044.31;10071116;29;20057;-80
2023/05/27 16:40:40;;;;;;;9.80;3.65;;;;;;;29.18;27.79;101032.66;10065433;29;20049;-78
2023/05/27 16:45:43;;;;;;;9.73;3.88;;;;;;;32.53;24.20;101024.78;10075005;29;20037;-81
2023/05/27 16:50:45;;;;;;;8.73;3.83;;;;;;;34.73;22.05;101015.97;10064240;29;20049;-80
2023/05/27 16:55:50;;;;;;;7.78;3.58;;;;;;;34.79;21.60;101017.66;10072272;29;20049;-79
2023/05/27 17:00:57;;;;;;;6.30;3.40;;;;;;;34.38;21.90;101015.44;10072084;29;20045;-79
2023/05/27 17:05:59;;;;;;;10.27;3.53;;;;;;;34.03;21.86;101013.19;10059610;29;20577;-77
2023/05/27 17:11:04;;;;;;;7.75;3.55;;;;;;;34.18;21.97;101012.53;10079897;29;20081;-80
2023/05/27 17:16:07;;;;;;;6.32;3.53;;;;;;;34.23;21.99;101007.00;10098027;29;20073;-82
2023/05/27 17:21:11;;;;;;;9.25;3.75;;;;;;;34.80;21.64;100997.00;10087658;29;20136;-80
2023/05/27 17:26:17;;;;;;;6.53;3.03;;;;;;;34.47;21.60;100998.19;10087802;29;20060;-80
2023/05/27 17:31:20;;;;;;;6.82;3.38;;;;;;;34.94;21.10;100991.75;10080154;29;20061;-81
2023/05/27 17:36:23;;;;;;;7.53;3.28;;;;;;;34.42;20.90;100990.63;10098238;29;20041;-80
2023/05/27 17:41:27;;;;;;;7.63;3.50;;;;;;;33.72;21.99;100999.03;10090081;29;20041;-81
2023/05/27 17:46:31;;;;;;;7.00;3.40;;;;;;;32.13;23.44;100995.28;10082550;29;20041;-80
2023/05/27 17:51:35;;;;;;;6.85;3.53;;;;;;;28.75;26.02;100998.47;10080568;29;20051;-79
2023/05/27 17:56:39;;;;;;;9.13;3.53;;;;;;;24.86;30.76;101002.75;10041660;29;20056;-78
2023/05/27 18:01:42;;;;;;;8.68;3.42;;;;;;;23.14;33.42;101000.19;10043021;29;20045;-79
2023/05/27 18:06:45;;;;;;;7.55;3.13;;;;;;;22.65;34.10;101005.41;10047056;29;20124;-79
2023/05/27 18:11:50;;;;;;;7.75;3.95;;;;;;;21.75;35.44;101006.25;10033815;29;20688;-79
2023/05/27 18:16:52;;;;;;;5.22;3.50;;;;;;;21.19;36.37;101014.63;10053655;29;20125;-79
2023/05/27 18:21:55;;;;;;;9.07;3.80;;;;;;;21.02;37.89;101013.84;10037950;29;20038;-78
2023/05/27 18:27:00;;;;;;;6.30;3.67;;;;;;;20.64;38.33;101015.50;10051112;29;20049;-79
2023/05/27 18:32:03;;;;;;;9.18;4.07;;;;;;;20.34;39.10;101010.63;10082605;29;20049;-80
2023/05/27 18:37:06;;;;;;;10.52;3.38;;;;;;;20.10;39.59;101005.19;10084447;29;20258;-81
2023/05/27 18:42:10;;;;;;;7.88;3.35;;;;;;;19.97;39.88;101002.16;10065086;29;20042;-81
2023/05/27 18:47:14;;;;;;;11.13;3.65;;;;;;;19.77;40.56;101010.63;10060166;29;20110;-79
2023/05/27 18:52:18;;;;;;;11.32;3.92;;;;;;;19.57;41.28;101009.25;10058334;29;20124;-79
2023/05/27 18:57:23;;;;;;;6.05;3.28;;;;;;;19.43;42.04;101016.19;10062688;29;20644;-80
2023/05/27 19:02:26;;;;;;;6.10;3.30;;;;;;;19.30;42.34;101007.66;10050386;29;20073;-80
2023/05/27 19:07:29;;;;;;;8.35;3.83;;;;;;;19.23;42.72;101005.59;10055656;29;20046;-79
2023/05/27 19:12:34;;;;;;;9.25;3.60;;;;;;;19.07;43.22;101001.97;10056022;29;20072;-80
2023/05/27 19:17:37;;;;;;;8.80;3.95;;;;;;;18.91;43.39;100991.88;10075332;29;20075;-82
2023/05/27 19:22:40;;;;;;;7.20;3.45;;;;;;;18.74;43.79;100991.78;10067800;29;20169;-81
2023/05/27 19:27:44;;;;;;;8.63;4.22;;;;;;;18.61;44.30;100994.09;10054114;29;20049;-80
2023/05/27 19:32:47;;;;;;;7.40;3.90;;;;;;;18.42;45.04;100988.88;10074626;29;20071;-81
2023/05/27 19:37:50;;;;;;;6.50;3.72;;;;;;;18.26;45.74;101001.34;10065569;29;20049;-81
2023/05/27 19:42:55;;;;;;;8.15;3.92;;;;;;;17.98;46.29;101000.66;10061411;29;20045;-79
2023/05/27 19:47:58;;;;;;;9.55;4.50;;;;;;;17.68;47.25;101000.03;10034838;29;20059;-79
2023/05/27 19:53:02;;;;;;;13.90;4.32;;;;;;;17.44;47.25;100997.94;10031011;29;20593;-80
2023/05/27 19:58:07;;;;;;;7.80;3.88;;;;;;;17.27;48.05;100990.63;10062370;29;20080;-79
2023/05/27 20:03:10;;;;;;;9.55;4.25;;;;;;;17.23;48.38;100995.50;10061384;29;20101;-78
2023/05/27 20:08:13;;;;;;;9.68;4.13;;;;;;;17.23;48.47;100990.09;10055461;29;20455;-80
2023/05/27 20:13:17;;;;;;;11.35;4.35;;;;;;;17.07;48.31;100986.31;10052107;29;20053;-79
2023/05/27 20:18:20;;;;;;;7.50;4.05;;;;;;;16.89;48.79;100994.41;10059397;29;20042;-79
2023/05/27 20:23:23;;;;;;;12.40;4.70;;;;;;;16.54;48.91;100991.44;10036412;29;20038;-81
2023/05/27 20:28:27;;;;;;;8.52;3.95;;;;;;;16.48;49.07;100989.31;10053667;29;20080;-79
2023/05/27 20:33:30;;;;;;;9.82;4.18;;;;;;;16.50;49.34;100987.28;10048714;29;20109;-79
2023/05/27 20:38:33;;;;;;;7.88;4.43;;;;;;;16.62;49.87;100987.97;10059481;29;20053;-80
2023/05/27 20:43:38;;;;;;;10.48;5.47;;;;;;;16.60;49.72;100992.69;10054974;29;20072;-79
2023/05/27 20:48:42;;;;;;;11.18;4.93;;;;;;;16.54;49.74;100983.28;10038553;29;20084;-79
2023/05/27 20:53:44;;;;;;;9.95;4.95;;;;;;;16.40;50.13;100991.91;10052989;29;20042;-79
2023/05/27 20:58:49;;;;;;;8.95;4.70;;;;;;;16.27;50.26;100994.09;10052771;29;20079;-78
2023/05/27 21:03:52;;;;;;;6.93;4.53;;;;;;;16.18;50.97;100993.09;10047146;29;20505;-79
2023/05/27 21:08:55;;;;;;;7.25;4.40;;;;;;;16.17;51.06;100974.25;10046223;29;20140;-79
2023/05/27 21:13:59;;;;;;;9.00;5.13;;;;;;;16.22;51.36;100972.81;10053381;29;20086;-79
2023/05/27 21:19:02;;;;;;;9.18;5.38;;;;;;;16.13;51.47;100982.66;10059507;29;20054;-79
2023/05/27 21:24:05;;;;;;;12.52;5.32;;;;;;;16.06;51.72;100973.41;10042911;29;20121;-78
2023/05/27 21:29:11;;;;;;;12.57;5.78;;;;;;;16.00;51.35;100968.56;10069237;29;20468;-79
2023/05/27 21:34:14;;;;;;;10.82;5.60;;;;;;;15.67;51.93;100973.47;10054210;29;20049;-80
2023/05/27 21:39:17;;;;;;;10.77;5.22;;;;;;;15.56;52.44;100965.47;10050019;29;20069;-79
2023/05/27 21:44:23;;;;;;;6.80;4.95;;;;;;;15.11;53.16;100963.28;10054151;29;20054;-80
2023/05/27 21:49:26;;;;;;;10.57;5.22;;;;;;;15.07;53.36;100969.97;10066479;29;20045;-79
2023/05/27 21:54:28;;;;;;;14.07;4.57;;;;;;;15.15;53.49;100966.56;10066940;29;20048;-78
2023/05/27 21:59:33;;;;;;;11.23;5.07;;;;;;;15.04;53.85;100959.44;10053206;29;20053;-79
2023/05/27 22:04:36;;;;;;;9.93;4.28;;;;;;;15.12;53.80;100954.16;10044118;29;20082;-78
2023/05/27 22:09:40;;;;;;;10.35;4.78;;;;;;;15.04;53.40;100948.59;10055031;29;20156;-79
2023/05/27 22:14:44;;;;;;;9.50;4.40;;;;;;;15.03;53.87;100945.06;10052244;29;20069;-80
2023/05/27 22:19:47;;;;;;;10.88;5.18;;;;;;;14.94;53.95;100943.16;10047325;29;20088;-80
2023/05/27 22:24:50;;;;;;;18.13;9.23;;;;;;;14.90;54.65;100941.75;10054315;29;20045;-79
2023/05/27 22:29:54;;;;;;;19.35;9.65;;;;;;;14.75;54.93;100937.72;10048119;29;20132;-78
2023/05/27 22:34:57;;;;;;;14.93;9.75;;;;;;;14.71;54.91;100933.59;10064123;29;20048;-80
2023/05/27 22:40:00;;;;;;;15.00;8.60;;;;;;;14.60;55.59;100931.84;10080974;29;20125;-80
2023/05/27 22:45:05;;;;;;;15.50;8.23;;;;;;;14.47;56.09;100929.38;10050929;29;20435;-79
2023/05/27 22:50:08;;;;;;;13.52;6.57;;;;;;;14.32;56.93;100922.59;10067604;29;20045;-78
2023/05/27 22:55:11;;;;;;;15.80;6.63;;;;;;;14.39;56.91;100923.78;10077530;29;20060;-78
2023/05/27 23:00:16;;;;;;;14.38;7.10;;;;;;;14.44;56.97;100916.13;10076726;29;20057;-78
2023/05/27 23:05:19;;;;;;;10.15;6.78;;;;;;;14.09;57.44;100917.34;10077150;29;20046;-79
2023/05/27 23:10:24;;;;;;;15.13;7.82;;;;;;;14.03;57.49;100917.06;10076678;29;20064;-78
2023/05/27 23:15:29;;;;;;;13.68;6.35;;;;;;;14.05;57.83;100920.47;10078169;29;20041;-78